Time;durP1;ratioP1;P1;durP2;ratioP2;P2;SDS_P1;SDS_P2;PMS_P1;PMS_P2;Temp;Humidity;BMP_temperature;BMP_pressure;BME280_temperature;BME280_humidity;BME280_pressure;Samples;Min_cycle;Max_cycle;Signal;HPM_P1;HPM_P2
2022/11/20 00:01:28;;;;;;;17.03;10.27;;;;;;;;;;5010413;28;20220;-89
2022/11/20 00:04:32;;;;;;;15.50;10.50;;;;;;;;;;5010327;28;20201;-89
2022/11/20 00:07:36;;;;;;;13.73;9.30;;;;;;;;;;5010868;28;20203;-89
2022/11/20 00:10:40;;;;;;;16.10;9.77;;;;;;;;;;5008568;28;20220;-89
2022/11/20 00:13:45;;;;;;;15.13;9.30;;;;;;;;;;5006612;28;20201;-89
2022/11/20 00:16:49;;;;;;;16.47;10.00;;;;;;;;;;5010262;28;20208;-89
2022/11/20 00:19:53;;;;;;;13.37;8.63;;;;;;;;;;5007335;28;20554;-89
2022/11/20 00:22:57;;;;;;;13.13;8.47;;;;;;;;;;4990747;28;20213;-89
2022/11/20 00:26:07;;;;;;;14.33;9.47;;;;;;;;;;4980003;28;20181;-89
2022/11/20 00:29:11;;;;;;;16.70;9.77;;;;;;;;;;4979654;28;20185;-88
2022/11/20 00:32:15;;;;;;;14.10;9.90;;;;;;;;;;4980038;28;20185;-89
2022/11/20 00:35:19;;;;;;;14.10;9.80;;;;;;;;;;4991128;28;20178;-89
2022/11/20 00:38:23;;;;;;;14.70;8.93;;;;;;;;;;5002078;28;20181;-89
2022/11/20 00:41:29;;;;;;;13.17;9.20;;;;;;;;;;4982678;28;20691;-89
2022/11/20 00:44:33;;;;;;;12.43;7.97;;;;;;;;;;5006067;28;20209;-89
2022/11/20 00:47:37;;;;;;;13.40;8.33;;;;;;;;;;4994647;28;20182;-89
2022/11/20 00:50:41;;;;;;;13.60;9.20;;;;;;;;;;4983226;28;20216;-89
2022/11/20 00:53:46;;;;;;;14.20;8.90;;;;;;;;;;4994620;28;20201;-89
2022/11/20 00:56:52;;;;;;;13.63;8.40;;;;;;;;;;4994044;28;20202;-89
2022/11/20 00:59:56;;;;;;;12.63;8.10;;;;;;;;;;4983438;28;20221;-89
2022/11/20 01:03:00;;;;;;;13.07;8.43;;;;;;;;;;4982889;28;20205;-89
2022/11/20 01:06:07;;;;;;;11.83;8.47;;;;;;;;;;4993780;28;20193;-89
2022/11/20 01:09:13;;;;;;;12.53;8.07;;;;;;;;;;4994049;28;20185;-89
2022/11/20 01:12:18;;;;;;;15.83;9.30;;;;;;;;;;4994564;28;20181;-89
2022/11/20 01:15:22;;;;;;;14.33;9.10;;;;;;;;;;4982665;28;20185;-89
2022/11/20 01:18:26;;;;;;;13.17;8.73;;;;;;;;;;4993759;28;20186;-89
2022/11/20 01:21:36;;;;;;;12.60;8.60;;;;;;;;;;4993304;28;20217;-89
2022/11/20 01:24:41;;;;;;;17.03;9.80;;;;;;;;;;4993835;28;20214;-89
2022/11/20 01:27:45;;;;;;;13.47;9.10;;;;;;;;;;4982783;28;20186;-89
2022/11/20 01:30:49;;;;;;;14.57;9.53;;;;;;;;;;4993890;28;20224;-89
2022/11/20 01:33:56;;;;;;;14.90;9.73;;;;;;;;;;4983337;28;20181;-89
2022/11/20 01:37:00;;;;;;;15.27;9.60;;;;;;;;;;4994090;28;20182;-89
2022/11/20 01:40:05;;;;;;;14.23;9.30;;;;;;;;;;4982002;28;20243;-89
2022/11/20 01:43:23;;;;;;;19.37;10.30;;;;;;;;;;5016864;28;20181;-89
2022/11/20 01:46:28;;;;;;;16.67;9.70;;;;;;;;;;5004747;28;20186;-89
2022/11/20 01:49:32;;;;;;;16.80;10.57;;;;;;;;;;4993349;28;20221;-89
2022/11/20 01:53:01;;;;;;;13.37;9.53;;;;;;;;;;4981137;28;20193;-89
2022/11/20 01:56:09;;;;;;;14.97;9.80;;;;;;;;;;4993626;28;20182;-89
2022/11/20 01:59:17;;;;;;;14.40;8.93;;;;;;;;;;4982066;28;20174;-88
2022/11/20 02:02:22;;;;;;;15.30;9.37;;;;;;;;;;4982101;28;20204;-89
2022/11/20 02:05:29;;;;;;;13.67;9.47;;;;;;;;;;4982168;28;20177;-89
2022/11/20 02:08:34;;;;;;;14.60;9.90;;;;;;;;;;4993022;28;20185;-89
2022/11/20 02:11:38;;;;;;;16.43;9.17;;;;;;;;;;5004347;28;20182;-89
2022/11/20 02:14:43;;;;;;;14.13;9.90;;;;;;;;;;4981993;28;20617;-89
2022/11/20 02:17:48;;;;;;;15.20;9.50;;;;;;;;;;4993384;28;20178;-89
2022/11/20 02:21:12;;;;;;;14.47;10.20;;;;;;;;;;4981630;28;20221;-89
2022/11/20 02:24:21;;;;;;;16.43;10.03;;;;;;;;;;4981616;28;20587;-89
2022/11/20 02:27:26;;;;;;;14.67;10.00;;;;;;;;;;4981450;28;20194;-89
2022/11/20 02:30:30;;;;;;;18.07;11.07;;;;;;;;;;4981828;28;20221;-90
2022/11/20 02:33:34;;;;;;;15.70;10.13;;;;;;;;;;4992863;28;20632;-89
2022/11/20 02:36:42;;;;;;;15.27;9.80;;;;;;;;;;4992896;28;20186;-89
2022/11/20 02:39:48;;;;;;;15.50;9.80;;;;;;;;;;4992821;28;20687;-89
2022/11/20 02:42:53;;;;;;;14.83;9.40;;;;;;;;;;4981593;28;20625;-89
2022/11/20 02:45:57;;;;;;;14.17;9.97;;;;;;;;;;4993134;28;20174;-89
2022/11/20 02:49:02;;;;;;;14.73;9.53;;;;;;;;;;4981744;28;20629;-89
2022/11/20 02:52:07;;;;;;;13.97;9.90;;;;;;;;;;4982057;28;20197;-89
2022/11/20 02:55:11;;;;;;;13.13;9.43;;;;;;;;;;4981764;28;20521;-89
2022/11/20 02:58:15;;;;;;;13.50;8.40;;;;;;;;;;5004331;28;20185;-89
2022/11/20 03:01:19;;;;;;;10.20;7.70;;;;;;;;;;4992198;28;20695;-89
2022/11/20 03:04:23;;;;;;;11.53;7.63;;;;;;;;;;4980649;28;20205;-89
2022/11/20 03:07:27;;;;;;;8.73;6.47;;;;;;;;;;4981123;28;20181;-89
2022/11/20 03:10:31;;;;;;;10.13;6.97;;;;;;;;;;4991908;28;20549;-89
2022/11/20 03:13:36;;;;;;;7.73;6.63;;;;;;;;;;4991886;28;20177;-89
2022/11/20 03:16:40;;;;;;;8.87;6.37;;;;;;;;;;4980695;28;20185;-89
2022/11/20 03:19:44;;;;;;;9.33;6.27;;;;;;;;;;4980484;28;20684;-89
2022/11/20 03:22:48;;;;;;;7.80;5.83;;;;;;;;;;4980329;28;20197;-89
2022/11/20 03:25:52;;;;;;;10.83;6.63;;;;;;;;;;4980215;28;20189;-89
2022/11/20 03:28:59;;;;;;;9.30;6.10;;;;;;;;;;4990972;28;20193;-89
2022/11/20 03:32:03;;;;;;;8.30;5.53;;;;;;;;;;4991375;28;20201;-89
2022/11/20 03:35:07;;;;;;;7.47;5.30;;;;;;;;;;5002120;28;20629;-89
2022/11/20 03:38:11;;;;;;;8.97;5.73;;;;;;;;;;4991171;28;20182;-89
2022/11/20 03:41:20;;;;;;;7.73;5.27;;;;;;;;;;4991698;28;20588;-89
2022/11/20 03:44:24;;;;;;;8.43;5.77;;;;;;;;;;4979620;28;20221;-89
2022/11/20 03:47:28;;;;;;;8.87;5.53;;;;;;;;;;4980117;28;20182;-89
2022/11/20 03:50:32;;;;;;;8.47;5.50;;;;;;;;;;4991414;28;20220;-89
2022/11/20 03:53:37;;;;;;;8.77;5.80;;;;;;;;;;4980427;28;20181;-89
2022/11/20 03:56:41;;;;;;;7.67;5.23;;;;;;;;;;5002642;28;20181;-89
2022/11/20 03:59:45;;;;;;;7.33;4.93;;;;;;;;;;4979816;28;20212;-89
2022/11/20 04:02:49;;;;;;;6.73;5.17;;;;;;;;;;4991290;28;20205;-89
2022/11/20 04:05:53;;;;;;;6.50;5.33;;;;;;;;;;4990645;28;20225;-89
2022/11/20 04:08:58;;;;;;;6.77;5.00;;;;;;;;;;5002050;28;20518;-89
2022/11/20 04:12:02;;;;;;;8.87;5.60;;;;;;;;;;4979916;28;20624;-89
2022/11/20 04:15:07;;;;;;;7.97;4.80;;;;;;;;;;4991507;28;20190;-90
2022/11/20 04:18:11;;;;;;;6.07;5.00;;;;;;;;;;5005554;28;20197;-89
2022/11/20 04:21:15;;;;;;;8.23;5.30;;;;;;;;;;4995163;28;20217;-89
2022/11/20 04:24:19;;;;;;;6.47;5.23;;;;;;;;;;4986139;28;20224;-90
2022/11/20 04:27:23;;;;;;;5.97;4.87;;;;;;;;;;4985959;28;20201;-89
2022/11/20 04:30:28;;;;;;;9.50;4.80;;;;;;;;;;4986277;28;20225;-89
2022/11/20 04:33:33;;;;;;;7.67;4.60;;;;;;;;;;4997203;28;20173;-89
2022/11/20 04:36:37;;;;;;;6.60;4.90;;;;;;;;;;5008295;28;20548;-89
2022/11/20 04:39:41;;;;;;;7.80;5.00;;;;;;;;;;4985876;28;20213;-89
2022/11/20 04:42:45;;;;;;;9.30;4.60;;;;;;;;;;4986425;28;20196;-90
2022/11/20 04:45:54;;;;;;;5.07;4.20;;;;;;;;;;4990192;28;20220;-90
2022/11/20 04:48:58;;;;;;;8.07;4.80;;;;;;;;;;4994287;28;20190;-89
2022/11/20 04:52:02;;;;;;;5.73;4.57;;;;;;;;;;5015305;28;20544;-90
2022/11/20 04:55:07;;;;;;;5.83;4.37;;;;;;;;;;4994807;28;20205;-90
2022/11/20 04:58:12;;;;;;;6.03;4.50;;;;;;;;;;5015153;28;20204;-89
2022/11/20 05:01:19;;;;;;;5.37;3.97;;;;;;;;;;5013956;28;20231;-89
2022/11/20 05:04:23;;;;;;;6.00;4.33;;;;;;;;;;5025183;28;20211;-89
2022/11/20 05:07:27;;;;;;;5.97;3.63;;;;;;;;;;5001939;28;20186;-89
2022/11/20 05:10:32;;;;;;;5.80;4.47;;;;;;;;;;5012633;28;20213;-89
2022/11/20 05:13:37;;;;;;;5.80;4.17;;;;;;;;;;5004323;28;20200;-89
2022/11/20 05:16:41;;;;;;;6.00;4.13;;;;;;;;;;5019972;28;20244;-91
2022/11/20 05:19:45;;;;;;;4.73;3.63;;;;;;;;;;5024619;28;20225;-90
2022/11/20 05:22:49;;;;;;;9.50;3.70;;;;;;;;;;4987389;28;20200;-89
2022/11/20 05:25:55;;;;;;;5.80;3.77;;;;;;;;;;4987127;28;20208;-89
2022/11/20 05:28:59;;;;;;;5.33;3.70;;;;;;;;;;4997791;28;20206;-90
2022/11/20 05:32:05;;;;;;;4.57;3.67;;;;;;;;;;4997137;28;20177;-89
2022/11/20 05:35:09;;;;;;;5.07;3.80;;;;;;;;;;4996129;28;20533;-89
2022/11/20 05:38:13;;;;;;;5.47;3.80;;;;;;;;;;4996189;28;20174;-89
2022/11/20 05:41:20;;;;;;;4.63;3.30;;;;;;;;;;4995611;28;20221;-90
2022/11/20 05:44:24;;;;;;;4.33;3.70;;;;;;;;;;5006358;28;20177;-89
2022/11/20 05:47:32;;;;;;;5.27;4.00;;;;;;;;;;5006059;28;20177;-89
2022/11/20 05:50:36;;;;;;;6.57;3.80;;;;;;;;;;4994663;28;20213;-89
2022/11/20 05:53:41;;;;;;;5.30;4.27;;;;;;;;;;5005223;28;20182;-90
2022/11/20 05:56:45;;;;;;;4.93;4.07;;;;;;;;;;5005346;28;20222;-89
2022/11/20 05:59:49;;;;;;;4.30;3.60;;;;;;;;;;4993649;28;20220;-90
2022/11/20 06:02:54;;;;;;;5.87;3.90;;;;;;;;;;4982445;28;20213;-90
2022/11/20 06:05:59;;;;;;;5.23;3.93;;;;;;;;;;4982412;28;20221;-89
2022/11/20 06:09:03;;;;;;;4.37;3.60;;;;;;;;;;4993873;28;20656;-90
2022/11/20 06:12:07;;;;;;;5.27;3.97;;;;;;;;;;5004374;28;20249;-89
2022/11/20 06:15:11;;;;;;;4.87;3.60;;;;;;;;;;4982802;28;20169;-90
2022/11/20 06:18:17;;;;;;;6.13;3.90;;;;;;;;;;4998924;28;20208;-90
2022/11/20 06:21:22;;;;;;;6.17;3.33;;;;;;;;;;5013213;28;20216;-90
2022/11/20 06:24:26;;;;;;;7.23;3.47;;;;;;;;;;5001328;28;20652;-90
2022/11/20 06:27:30;;;;;;;4.67;3.40;;;;;;;;;;5013301;28;20184;-90
2022/11/20 06:30:34;;;;;;;6.77;3.03;;;;;;;;;;5001421;28;20216;-90
2022/11/20 06:33:39;;;;;;;6.23;3.60;;;;;;;;;;5002322;28;20176;-91
2022/11/20 06:36:43;;;;;;;4.07;3.20;;;;;;;;;;4995486;28;20196;-90
2022/11/20 06:39:48;;;;;;;4.50;3.40;;;;;;;;;;4990985;28;20225;-91
2022/11/20 06:42:54;;;;;;;4.70;3.20;;;;;;;;;;5013863;28;20189;-90
2022/11/20 06:45:59;;;;;;;5.87;3.70;;;;;;;;;;4992861;28;20209;-90
2022/11/20 06:49:03;;;;;;;5.63;3.50;;;;;;;;;;5001558;28;20205;-90
2022/11/20 06:52:07;;;;;;;4.60;3.30;;;;;;;;;;4984314;28;20185;-90
2022/11/20 06:55:11;;;;;;;5.03;3.57;;;;;;;;;;4992962;28;20621;-90
2022/11/20 06:58:17;;;;;;;13.40;10.63;;;;;;;;;;4981797;28;20177;-88
2022/11/20 07:01:21;;;;;;;4.47;3.90;;;;;;;;;;4981370;28;20217;-89
2022/11/20 07:04:25;;;;;;;3.87;3.10;;;;;;;;;;4992501;28;20196;-89
2022/11/20 07:07:29;;;;;;;5.27;3.07;;;;;;;;;;4993001;28;20197;-89
2022/11/20 07:10:34;;;;;;;5.30;3.63;;;;;;;;;;4981864;28;20217;-89
2022/11/20 07:13:38;;;;;;;5.77;3.77;;;;;;;;;;4992739;28;20529;-90
2022/11/20 07:16:42;;;;;;;4.47;3.20;;;;;;;;;;5002584;28;20185;-91
2022/11/20 07:19:46;;;;;;;6.77;6.07;;;;;;;;;;5000958;28;20212;-91
2022/11/20 07:22:55;;;;;;;4.33;3.00;;;;;;;;;;4994848;28;20192;-90
2022/11/20 07:26:08;;;;;;;5.13;3.03;;;;;;;;;;5001394;28;20208;-90
2022/11/20 07:29:12;;;;;;;6.33;3.10;;;;;;;;;;5005516;28;20185;-90
2022/11/20 07:32:16;;;;;;;6.23;3.47;;;;;;;;;;5001038;28;20189;-90
2022/11/20 07:35:20;;;;;;;3.40;3.00;;;;;;;;;;5000863;28;20177;-91
2022/11/20 07:38:25;;;;;;;4.40;3.47;;;;;;;;;;4991661;28;20181;-89
2022/11/20 07:41:32;;;;;;;6.77;4.10;;;;;;;;;;4993035;28;20221;-91
2022/11/20 07:44:36;;;;;;;4.53;3.10;;;;;;;;;;5014246;28;20197;-91
2022/11/20 07:47:41;;;;;;;7.17;6.40;;;;;;;;;;5002479;28;20189;-90
2022/11/20 07:50:45;;;;;;;5.03;3.93;;;;;;;;;;4992528;28;20221;-89
2022/11/20 07:53:53;;;;;;;5.03;3.50;;;;;;;;;;4993043;28;20189;-89
2022/11/20 07:56:57;;;;;;;5.33;3.30;;;;;;;;;;4995497;28;20185;-87
2022/11/20 08:00:04;;;;;;;5.47;3.30;;;;;;;;;;4990305;28;20221;-89
2022/11/20 08:03:16;;;;;;;9.83;3.67;;;;;;;;;;5009941;28;20209;-89
2022/11/20 08:06:20;;;;;;;4.37;3.30;;;;;;;;;;4991421;28;20209;-90
2022/11/20 08:09:24;;;;;;;5.23;3.80;;;;;;;;;;5002947;28;20629;-90
2022/11/20 08:15:51;;;;;;;4.40;3.00;;;;;;;;;;4999867;28;20644;-89
2022/11/20 08:18:56;;;;;;;3.20;2.37;;;;;;;;;;4988061;28;20190;-89
2022/11/20 08:22:00;;;;;;;3.93;2.50;;;;;;;;;;5001914;28;20185;-89
2022/11/20 08:25:04;;;;;;;2.97;2.43;;;;;;;;;;4992464;28;20201;-89
2022/11/20 08:28:09;;;;;;;2.60;2.40;;;;;;;;;;4991116;28;20197;-90
2022/11/20 08:31:13;;;;;;;31.23;27.33;;;;;;;;;;4991473;28;20217;-89
2022/11/20 08:34:18;;;;;;;5.77;5.20;;;;;;;;;;4980443;28;20181;-90
2022/11/20 08:37:22;;;;;;;4.10;3.03;;;;;;;;;;4980522;28;20174;-89
2022/11/20 08:40:26;;;;;;;4.67;2.30;;;;;;;;;;4980202;28;20225;-90
2022/11/20 08:43:30;;;;;;;3.20;2.40;;;;;;;;;;4983736;28;20193;-91
2022/11/20 08:46:40;;;;;;;3.27;2.63;;;;;;;;;;4981361;28;20681;-91
2022/11/20 08:49:44;;;;;;;3.27;2.43;;;;;;;;;;4992598;28;20557;-91
2022/11/20 08:52:49;;;;;;;2.83;2.57;;;;;;;;;;5004228;28;20182;-90
2022/11/20 08:55:53;;;;;;;14.77;12.63;;;;;;;;;;4982257;28;20174;-91
2022/11/20 08:58:59;;;;;;;12.67;11.37;;;;;;;;;;5004461;28;20178;-91
2022/11/20 09:02:03;;;;;;;5.27;4.33;;;;;;;;;;5002850;28;20205;-91
2022/11/20 09:05:07;;;;;;;5.17;2.60;;;;;;;;;;5000443;28;20551;-91
2022/11/20 09:08:12;;;;;;;4.73;3.60;;;;;;;;;;5006689;28;20193;-91
2022/11/20 09:11:16;;;;;;;4.90;2.57;;;;;;;;;;4995477;28;20680;-91
2022/11/20 09:14:21;;;;;;;3.27;2.30;;;;;;;;;;5006355;28;20185;-91
2022/11/20 09:17:25;;;;;;;4.03;2.47;;;;;;;;;;5001557;28;20193;-90
2022/11/20 09:20:30;;;;;;;3.73;2.50;;;;;;;;;;4983855;28;20216;-91
2022/11/20 09:23:35;;;;;;;2.77;2.17;;;;;;;;;;4996099;28;20185;-91
2022/11/20 09:26:39;;;;;;;5.37;4.20;;;;;;;;;;5006525;28;20214;-91
2022/11/20 09:30:28;;;;;;;4.27;3.20;;;;;;;;;;4995909;28;20221;-93
2022/11/20 09:34:39;;;;;;;3.70;2.67;;;;;;;;;;5015098;28;20198;-92
2022/11/20 09:37:48;;;;;;;3.87;3.47;;;;;;;;;;5005998;28;20524;-92
2022/11/20 09:45:23;;;;;;;2.90;2.27;;;;;;;;;;5017138;28;20182;-88
2022/11/20 09:48:42;;;;;;;3.80;2.70;;;;;;;;;;5005422;28;20197;-90
2022/11/20 09:52:15;;;;;;;2.50;2.30;;;;;;;;;;5019581;28;20193;-87
2022/11/20 09:55:21;;;;;;;2.87;2.10;;;;;;;;;;5001721;28;20177;-90
2022/11/20 09:58:34;;;;;;;4.33;2.60;;;;;;;;;;4988390;28;20648;-90
2022/11/20 10:01:40;;;;;;;3.13;2.27;;;;;;;;;;4991286;28;20281;-91
2022/11/20 10:04:51;;;;;;;12.90;11.53;;;;;;;;;;4993050;28;20186;-90
2022/11/20 10:08:24;;;;;;;5.67;5.17;;;;;;;;;;5018138;28;20571;-90
2022/11/20 10:11:52;;;;;;;3.70;3.23;;;;;;;;;;4982830;28;20217;-91
2022/11/20 10:15:22;;;;;;;2.63;2.10;;;;;;;;;;4993786;28;20181;-90
2022/11/20 10:18:29;;;;;;;2.60;2.13;;;;;;;;;;5004885;28;20542;-91
2022/11/20 10:22:04;;;;;;;3.87;2.17;;;;;;;;;;4993172;28;20217;-90
2022/11/20 10:25:19;;;;;;;2.93;2.20;;;;;;;;;;4993674;28;20622;-90
2022/11/20 10:28:27;;;;;;;4.10;2.37;;;;;;;;;;4992838;28;20174;-90
2022/11/20 10:31:36;;;;;;;6.10;4.30;;;;;;;;;;4992480;28;20700;-90
2022/11/20 10:34:57;;;;;;;7.77;5.63;;;;;;;;;;4995061;28;20198;-88
2022/11/20 10:38:14;;;;;;;5.23;2.60;;;;;;;;;;4992889;28;20181;-91
2022/11/20 10:41:29;;;;;;;2.23;1.83;;;;;;;;;;4992524;28;20217;-90
2022/11/20 10:48:12;;;;;;;2.17;1.80;;;;;;;;;;4992186;28;20202;-91
2022/11/20 10:51:32;;;;;;;2.93;2.33;;;;;;;;;;4992976;28;20696;-90
2022/11/20 10:54:47;;;;;;;2.37;2.00;;;;;;;;;;5010689;28;20633;-90
2022/11/20 10:58:01;;;;;;;19.27;14.90;;;;;;;;;;4996129;28;20181;-91
2022/11/20 11:01:13;;;;;;;8.47;7.63;;;;;;;;;;4994272;28;20217;-90
2022/11/20 11:04:38;;;;;;;3.40;2.73;;;;;;;;;;4993651;28;20203;-90
2022/11/20 11:07:44;;;;;;;2.30;1.90;;;;;;;;;;4993333;28;20209;-90
2022/11/20 11:10:54;;;;;;;2.20;2.00;;;;;;;;;;5015684;28;20220;-91
2022/11/20 11:14:13;;;;;;;2.87;2.20;;;;;;;;;;4994391;28;20182;-91
2022/11/20 11:17:26;;;;;;;3.07;2.03;;;;;;;;;;5006786;28;20548;-91
2022/11/20 11:20:31;;;;;;;2.90;1.60;;;;;;;;;;4993333;28;20213;-91
2022/11/20 11:23:41;;;;;;;3.27;1.80;;;;;;;;;;4993964;28;20181;-90
2022/11/20 11:27:06;;;;;;;2.27;1.90;;;;;;;;;;4996002;28;20213;-91
2022/11/20 11:30:14;;;;;;;2.90;1.90;;;;;;;;;;4982708;28;20221;-90
2022/11/20 11:33:27;;;;;;;2.63;1.57;;;;;;;;;;4995233;28;20174;-89
2022/11/20 11:36:34;;;;;;;2.10;1.70;;;;;;;;;;4993511;28;20186;-89
2022/11/20 11:39:41;;;;;;;2.23;1.50;;;;;;;;;;4982081;28;20217;-90
2022/11/20 11:43:02;;;;;;;1.70;1.60;;;;;;;;;;4981230;28;20182;-91
2022/11/20 11:46:33;;;;;;;4.27;1.20;;;;;;;;;;4992524;28;20181;-90
2022/11/20 11:49:38;;;;;;;1.67;1.20;;;;;;;;;;4992839;28;20221;-91
2022/11/20 11:52:48;;;;;;;2.13;1.37;;;;;;;;;;4981871;28;20562;-91
2022/11/20 11:56:09;;;;;;;2.00;1.27;;;;;;;;;;4992352;28;20200;-91
2022/11/20 11:59:27;;;;;;;1.83;1.63;;;;;;;;;;4992738;28;20633;-91
2022/11/20 12:02:48;;;;;;;1.63;1.37;;;;;;;;;;5004466;28;20201;-91
2022/11/20 12:06:11;;;;;;;2.93;1.73;;;;;;;;;;4981052;28;20181;-88
2022/11/20 12:09:19;;;;;;;1.87;1.40;;;;;;;;;;4992937;28;20197;-91
2022/11/20 12:12:36;;;;;;;2.27;1.20;;;;;;;;;;5002939;28;20636;-91
2022/11/20 12:15:44;;;;;;;1.10;1.00;;;;;;;;;;4992091;28;20181;-91
2022/11/20 12:18:51;;;;;;;1.93;1.03;;;;;;;;;;4980973;28;20193;-91
2022/11/20 12:22:20;;;;;;;1.37;1.20;;;;;;;;;;4991723;28;20522;-91
2022/11/20 12:25:27;;;;;;;1.70;1.23;;;;;;;;;;4991519;28;20616;-90
2022/11/20 12:29:03;;;;;;;2.33;1.40;;;;;;;;;;4990684;28;20668;-90
2022/11/20 12:32:39;;;;;;;1.13;1.03;;;;;;;;;;4980059;28;20182;-91
2022/11/20 12:35:49;;;;;;;1.67;1.10;;;;;;;;;;5014890;28;20209;-91
2022/11/20 12:39:12;;;;;;;10.60;6.80;;;;;;;;;;5005900;28;20189;-90
2022/11/20 12:46:01;;;;;;;49.17;36.60;;;;;;;;;;4995105;28;20182;-91
2022/11/20 12:49:08;;;;;;;8.80;7.17;;;;;;;;;;5017441;28;20174;-90
2022/11/20 12:52:32;;;;;;;5.57;4.83;;;;;;;;;;5005598;28;20544;-90
2022/11/20 12:56:06;;;;;;;3.63;3.27;;;;;;;;;;4988789;28;20185;-90
2022/11/20 12:59:30;;;;;;;2.67;2.47;;;;;;;;;;4995033;28;20177;-90
2022/11/20 13:03:00;;;;;;;1.67;1.57;;;;;;;;;;4989843;28;20213;-91
2022/11/20 13:06:19;;;;;;;2.10;1.50;;;;;;;;;;5005962;28;20189;-90
2022/11/20 13:09:24;;;;;;;2.53;1.90;;;;;;;;;;5006358;28;20197;-90
2022/11/20 13:12:36;;;;;;;1.20;1.10;;;;;;;;;;5006545;28;20174;-90
2022/11/20 13:15:57;;;;;;;1.50;1.30;;;;;;;;;;4995083;28;20185;-91
2022/11/20 13:19:03;;;;;;;1.73;1.20;;;;;;;;;;4995450;28;20177;-90
2022/11/20 13:22:09;;;;;;;1.30;1.10;;;;;;;;;;5006724;28;20208;-90
2022/11/20 13:25:27;;;;;;;1.33;1.23;;;;;;;;;;4995478;28;20181;-90
2022/11/20 13:28:31;;;;;;;2.07;1.10;;;;;;;;;;5006564;28;20209;-90
2022/11/20 13:31:42;;;;;;;3.00;2.70;;;;;;;;;;4994984;28;20672;-90
2022/11/20 13:34:57;;;;;;;1.93;1.67;;;;;;;;;;5005569;28;20177;-91
2022/11/20 13:38:04;;;;;;;2.17;1.30;;;;;;;;;;4983048;28;20174;-90
2022/11/20 13:44:50;;;;;;;2.77;1.37;;;;;;;;;;5017289;28;20518;-91
2022/11/20 13:47:55;;;;;;;1.33;1.20;;;;;;;;;;5009638;28;20687;-91
2022/11/20 13:51:07;;;;;;;2.20;1.63;;;;;;;;;;5003374;28;20221;-90
2022/11/20 13:54:34;;;;;;;4.53;2.93;;;;;;;;;;5013764;28;20185;-91
2022/11/20 13:57:54;;;;;;;13.67;12.17;;;;;;;;;;5003785;28;20195;-90
2022/11/20 14:01:07;;;;;;;2.97;2.73;;;;;;;;;;5006409;28;20225;-92
2022/11/20 14:04:26;;;;;;;2.13;1.50;;;;;;;;;;4983196;28;20564;-91
2022/11/20 14:07:42;;;;;;;7.23;6.53;;;;;;;;;;5001632;28;20225;-91
2022/11/20 14:10:46;;;;;;;2.70;1.60;;;;;;;;;;5019292;28;20220;-90
2022/11/20 14:14:02;;;;;;;1.97;1.40;;;;;;;;;;4993126;28;20217;-90
2022/11/20 14:17:22;;;;;;;1.97;1.60;;;;;;;;;;4991834;28;20185;-90
2022/11/20 14:20:28;;;;;;;1.27;1.17;;;;;;;;;;5004469;28;20221;-91
2022/11/20 14:23:32;;;;;;;2.17;1.30;;;;;;;;;;5013996;28;20178;-91
2022/11/20 14:26:38;;;;;;;1.50;1.40;;;;;;;;;;4995980;28;20178;-90
2022/11/20 14:29:44;;;;;;;1.30;1.20;;;;;;;;;;4991942;28;20245;-89
2022/11/20 14:32:49;;;;;;;1.83;1.10;;;;;;;;;;4992908;28;20174;-91
2022/11/20 14:35:55;;;;;;;1.40;1.30;;;;;;;;;;5009422;28;20572;-92
2022/11/20 14:39:00;;;;;;;1.13;1.03;;;;;;;;;;5002269;28;20556;-91
2022/11/20 14:42:15;;;;;;;3.87;2.40;;;;;;;;;;4991231;28;20205;-91
2022/11/20 14:45:21;;;;;;;2.07;1.60;;;;;;;;;;4997111;28;20673;-90
2022/11/20 14:48:47;;;;;;;1.80;1.27;;;;;;;;;;4997671;28;20213;-91
2022/11/20 14:52:00;;;;;;;1.60;1.20;;;;;;;;;;5008382;28;20182;-91
2022/11/20 14:55:05;;;;;;;1.60;1.20;;;;;;;;;;5008218;28;20182;-91
2022/11/20 14:58:22;;;;;;;2.10;1.80;;;;;;;;;;5003899;28;20201;-91
2022/11/20 15:01:31;;;;;;;1.73;1.50;;;;;;;;;;5020819;28;20216;-91
2022/11/20 15:05:03;;;;;;;2.00;1.80;;;;;;;;;;5021391;28;20201;-91
2022/11/20 15:08:08;;;;;;;2.70;1.50;;;;;;;;;;5012553;28;20221;-91
2022/11/20 15:11:19;;;;;;;1.50;1.40;;;;;;;;;;5006080;28;20221;-90
2022/11/20 15:14:42;;;;;;;3.40;1.83;;;;;;;;;;4995696;28;20201;-91
2022/11/20 15:17:46;;;;;;;3.30;1.40;;;;;;;;;;5014511;28;20204;-91
2022/11/20 15:20:52;;;;;;;2.90;1.50;;;;;;;;;;5010359;28;20229;-90
2022/11/20 15:23:56;;;;;;;1.53;1.37;;;;;;;;;;5005473;28;20197;-91
2022/11/20 15:27:01;;;;;;;1.50;1.40;;;;;;;;;;4988457;28;20189;-90
2022/11/20 15:30:18;;;;;;;1.40;1.30;;;;;;;;;;5010789;28;20224;-90
2022/11/20 15:33:22;;;;;;;3.53;1.40;;;;;;;;;;5001070;28;20193;-90
2022/11/20 15:36:26;;;;;;;3.20;1.90;;;;;;;;;;4995860;28;20189;-91
2022/11/20 15:39:30;;;;;;;2.93;2.27;;;;;;;;;;5008592;28;20178;-91
2022/11/20 15:42:35;;;;;;;2.80;1.40;;;;;;;;;;4996679;28;20190;-90
2022/11/20 15:45:41;;;;;;;3.80;2.43;;;;;;;;;;4996860;28;20177;-90
2022/11/20 15:48:56;;;;;;;2.27;1.40;;;;;;;;;;4998997;28;20580;-89
2022/11/20 15:52:00;;;;;;;3.37;1.40;;;;;;;;;;5001932;28;20196;-89
2022/11/20 15:55:09;;;;;;;2.20;1.40;;;;;;;;;;4991521;28;20212;-91
2022/11/20 15:58:16;;;;;;;1.63;1.53;;;;;;;;;;5006452;28;20188;-90
2022/11/20 16:01:21;;;;;;;2.30;2.10;;;;;;;;;;4994489;28;20225;-90
2022/11/20 16:04:26;;;;;;;3.47;1.83;;;;;;;;;;4997977;28;20200;-90
2022/11/20 16:07:30;;;;;;;3.40;1.50;;;;;;;;;;5004219;28;20225;-90
2022/11/20 16:10:35;;;;;;;28.37;25.37;;;;;;;;;;4996891;28;20229;-91
2022/11/20 16:17:02;;;;;;;4.10;2.77;;;;;;;;;;4997343;28;20617;-90
2022/11/20 16:20:11;;;;;;;4.30;2.63;;;;;;;;;;4996747;28;20209;-90
2022/11/20 16:23:15;;;;;;;8.13;7.33;;;;;;;;;;4986573;28;20193;-90
2022/11/20 16:26:20;;;;;;;5.53;4.10;;;;;;;;;;4985294;28;20182;-90
2022/11/20 16:29:24;;;;;;;3.10;2.40;;;;;;;;;;4996285;28;20591;-90
2022/11/20 16:32:29;;;;;;;3.23;2.07;;;;;;;;;;4985896;28;20185;-90
2022/11/20 16:35:33;;;;;;;3.50;1.80;;;;;;;;;;4997882;28;20201;-89
2022/11/20 16:38:37;;;;;;;4.10;2.17;;;;;;;;;;5004310;28;20197;-89
2022/11/20 16:41:42;;;;;;;5.67;2.40;;;;;;;;;;5004762;28;20209;-89
2022/11/20 16:44:46;;;;;;;2.97;2.30;;;;;;;;;;4996473;28;20552;-90
2022/11/20 16:47:51;;;;;;;2.77;2.00;;;;;;;;;;4996632;28;20201;-90
2022/11/20 16:50:55;;;;;;;3.53;2.07;;;;;;;;;;4995819;28;20221;-90
2022/11/20 16:54:01;;;;;;;14.00;12.03;;;;;;;;;;5007765;28;20177;-90
2022/11/20 16:57:05;;;;;;;16.83;11.20;;;;;;;;;;5018415;28;20177;-90
2022/11/20 17:00:10;;;;;;;5.70;4.47;;;;;;;;;;4995609;28;20209;-90
2022/11/20 17:03:16;;;;;;;2.60;2.10;;;;;;;;;;4995453;28;20209;-89
2022/11/20 17:06:23;;;;;;;3.27;2.40;;;;;;;;;;5014508;28;20204;-90
2022/11/20 17:09:28;;;;;;;4.43;2.37;;;;;;;;;;5003886;28;20683;-90
2022/11/20 17:12:32;;;;;;;2.90;2.27;;;;;;;;;;5003486;28;20212;-90
2022/11/20 17:15:37;;;;;;;2.13;1.93;;;;;;;;;;5003849;28;20184;-90
2022/11/20 17:18:42;;;;;;;2.73;1.90;;;;;;;;;;5014188;28;20177;-90
2022/11/20 17:21:47;;;;;;;2.53;1.90;;;;;;;;;;5003099;28;20200;-90
2022/11/20 17:24:51;;;;;;;3.50;2.30;;;;;;;;;;5003488;28;20509;-90
2022/11/20 17:27:55;;;;;;;4.80;4.30;;;;;;;;;;5002990;28;20591;-90
2022/11/20 17:31:10;;;;;;;3.93;2.80;;;;;;;;;;5003146;28;20552;-89
2022/11/20 17:34:15;;;;;;;3.30;2.30;;;;;;;;;;4985211;28;20193;-89
2022/11/20 17:37:19;;;;;;;2.87;2.07;;;;;;;;;;4993847;28;20197;-90
2022/11/20 17:40:23;;;;;;;3.70;2.10;;;;;;;;;;4994144;28;20209;-90
2022/11/20 17:43:27;;;;;;;3.40;2.27;;;;;;;;;;4993732;28;20206;-89
2022/11/20 17:46:33;;;;;;;2.73;2.17;;;;;;;;;;4994462;28;20173;-90
2022/11/20 17:49:37;;;;;;;5.53;4.47;;;;;;;;;;4993603;28;20225;-91
2022/11/20 17:52:41;;;;;;;13.10;9.30;;;;;;;;;;4982288;28;20173;-90
2022/11/20 17:59:17;;;;;;;4.83;3.50;;;;;;;;;;4993412;28;20177;-90
2022/11/20 18:02:21;;;;;;;4.53;3.13;;;;;;;;;;4993052;28;20201;-91
2022/11/20 18:05:25;;;;;;;4.27;3.40;;;;;;;;;;4992619;28;20555;-91
2022/11/20 18:08:29;;;;;;;9.17;5.77;;;;;;;;;;4992581;28;20668;-91
2022/11/20 18:11:37;;;;;;;4.77;3.50;;;;;;;;;;4992509;28;20209;-91
2022/11/20 18:14:42;;;;;;;5.60;3.33;;;;;;;;;;4993160;28;20178;-90
2022/11/20 18:17:47;;;;;;;6.07;4.60;;;;;;;;;;4998837;28;20200;-91
2022/11/20 18:20:54;;;;;;;55.10;45.40;;;;;;;;;;5005180;28;20221;-90
2022/11/20 18:23:58;;;;;;;20.40;18.30;;;;;;;;;;4981553;28;20633;-90
2022/11/20 18:27:04;;;;;;;12.87;9.03;;;;;;;;;;4985599;28;20190;-91
2022/11/20 18:30:09;;;;;;;5.83;3.90;;;;;;;;;;5003367;28;20232;-91
2022/11/20 18:33:13;;;;;;;6.57;2.57;;;;;;;;;;5012458;28;20189;-90
2022/11/20 18:36:20;;;;;;;4.40;2.73;;;;;;;;;;4998967;28;20185;-90
2022/11/20 18:39:24;;;;;;;6.83;2.27;;;;;;;;;;5002893;28;20595;-90
2022/11/20 18:46:20;;;;;;;2.20;2.00;;;;;;;;;;5033335;28;20185;-86
2022/11/20 18:49:26;;;;;;;4.97;2.40;;;;;;;;;;4992497;28;20225;-87
2022/11/20 18:52:38;;;;;;;5.50;2.97;;;;;;;;;;5002977;28;20182;-87
2022/11/20 18:55:43;;;;;;;2.63;2.20;;;;;;;;;;5000277;28;20208;-87
2022/11/20 18:58:47;;;;;;;3.63;2.13;;;;;;;;;;5011637;28;20192;-86
2022/11/20 19:01:51;;;;;;;2.33;1.90;;;;;;;;;;4972892;28;1107332;-86
2022/11/20 19:04:55;;;;;;;2.43;1.90;;;;;;;;;;5012318;28;20703;-86
2022/11/20 19:08:00;;;;;;;2.50;2.00;;;;;;;;;;5018477;28;20539;-86
2022/11/20 19:11:06;;;;;;;2.80;2.20;;;;;;;;;;5001636;28;20234;-86